createdAt,value
2023-01-22T00:01:01.372Z,0.61
2023-01-22T00:03:28.143Z,1.20
2023-01-22T00:05:55.126Z,1.35
2023-01-22T00:08:22.031Z,0.69
2023-01-22T00:10:49.830Z,1.21
2023-01-22T00:13:18.199Z,0.92
2023-01-22T00:15:45.046Z,0.69
2023-01-22T00:18:11.922Z,1.18
2023-01-22T00:20:41.444Z,0.94
2023-01-22T00:23:08.396Z,0.88
2023-01-22T00:25:35.162Z,0.84
2023-01-22T00:28:02.117Z,0.65
2023-01-22T00:30:30.529Z,0.22
2023-01-22T00:32:57.536Z,0.62
2023-01-22T00:35:25.301Z,0.38
2023-01-22T00:37:52.233Z,1.11
2023-01-22T00:40:19.564Z,1.10
2023-01-22T00:42:47.024Z,0.54
2023-01-22T00:45:15.008Z,1.12
2023-01-22T00:47:43.352Z,0.93
2023-01-22T00:50:11.669Z,1.12
2023-01-22T00:52:38.918Z,1.13
2023-01-22T00:55:09.484Z,1.03
2023-01-22T00:57:43.823Z,0.76
2023-01-22T01:00:13.458Z,0.63
2023-01-22T01:02:40.669Z,1.03
2023-01-22T01:05:09.504Z,1.17
2023-01-22T01:07:36.457Z,1.17
2023-01-22T01:10:03.439Z,0.55
2023-01-22T01:12:30.273Z,1.09
2023-01-22T01:14:57.084Z,1.14
2023-01-22T01:17:23.843Z,0.29
2023-01-22T01:19:51.351Z,1.13
2023-01-22T01:22:19.593Z,1.13
2023-01-22T01:24:46.431Z,1.13
2023-01-22T01:27:13.191Z,1.13
2023-01-22T01:29:39.905Z,1.13
2023-01-22T01:32:06.647Z,1.10
2023-01-22T01:34:33.377Z,0.96
2023-01-22T01:37:00.209Z,1.11
2023-01-22T01:39:28.417Z,1.07
2023-01-22T01:41:55.092Z,1.06
2023-01-22T01:44:23.436Z,1.06
2023-01-22T01:46:53.055Z,1.04
2023-01-22T01:49:30.820Z,0.78
2023-01-22T01:52:01.961Z,0.75
2023-01-22T01:54:31.078Z,0.97
2023-01-22T01:57:04.125Z,0.98
2023-01-22T01:59:31.697Z,0.97
2023-01-22T02:01:58.441Z,0.94
2023-01-22T02:04:28.205Z,0.48
2023-01-22T02:06:55.036Z,0.95
2023-01-22T02:09:22.250Z,0.95
2023-01-22T02:11:53.253Z,0.93
2023-01-22T02:14:23.954Z,0.55
2023-01-22T02:17:00.267Z,0.98
2023-01-22T02:19:27.022Z,0.82
2023-01-22T02:21:55.218Z,1.08
2023-01-22T02:24:23.145Z,0.62
2023-01-22T02:26:50.412Z,1.16
2023-01-22T02:29:17.614Z,0.97
2023-01-22T02:31:45.010Z,0.61
2023-01-22T02:34:12.900Z,1.22
2023-01-22T02:36:40.369Z,0.72
2023-01-22T02:39:08.693Z,1.27
2023-01-22T02:41:38.270Z,1.16
2023-01-22T02:44:05.887Z,1.33
2023-01-22T02:46:32.820Z,1.35
2023-01-22T02:48:59.897Z,1.37
2023-01-22T02:51:26.620Z,0.69
2023-01-22T02:53:54.195Z,1.42
2023-01-22T02:56:22.870Z,1.26
2023-01-22T02:58:50.063Z,1.00
2023-01-22T03:01:19.728Z,1.34
2023-01-22T03:03:47.227Z,1.36
2023-01-22T03:06:14.209Z,1.40
2023-01-22T03:08:41.584Z,1.49
2023-01-22T03:11:08.370Z,1.51
2023-01-22T03:13:36.493Z,1.06
2023-01-22T03:16:04.111Z,1.53
2023-01-22T03:18:32.159Z,1.37
2023-01-22T03:20:59.342Z,1.52
2023-01-22T03:23:26.452Z,1.54
2023-01-22T03:25:56.545Z,1.55
2023-01-22T03:28:23.419Z,0.92
2023-01-22T03:30:52.333Z,1.55
2023-01-22T03:33:19.533Z,1.36
2023-01-22T03:35:49.524Z,1.52
2023-01-22T03:38:16.483Z,0.90
2023-01-22T03:40:44.406Z,1.46
2023-01-22T03:43:11.503Z,1.52
2023-01-22T03:45:39.483Z,0.24
2023-01-22T03:48:07.690Z,1.20
2023-01-22T03:50:35.107Z,1.21
2023-01-22T03:53:02.095Z,1.30
2023-01-22T03:55:28.847Z,0.29
2023-01-22T03:57:56.130Z,1.39
2023-01-22T04:00:23.480Z,0.45
2023-01-22T04:02:50.289Z,0.58
2023-01-22T04:05:18.934Z,1.54
2023-01-22T04:07:45.957Z,1.40
2023-01-22T04:10:12.651Z,1.38
2023-01-22T04:12:39.466Z,0.80
2023-01-22T04:15:10.617Z,1.54
2023-01-22T04:17:37.222Z,1.54
2023-01-22T04:20:04.855Z,1.48
2023-01-22T04:22:33.753Z,1.30
2023-01-22T04:25:00.453Z,1.48
2023-01-22T04:27:27.416Z,1.45
2023-01-22T04:29:54.269Z,0.48
2023-01-22T04:32:21.234Z,1.64
2023-01-22T04:34:48.028Z,1.16
2023-01-22T04:37:14.998Z,1.80
2023-01-22T04:39:43.172Z,1.37
2023-01-22T04:42:10.885Z,1.60
2023-01-22T04:44:38.215Z,1.37
2023-01-22T04:47:05.111Z,1.73
2023-01-22T04:49:32.113Z,1.74
2023-01-22T04:51:59.672Z,0.69
2023-01-22T04:54:26.684Z,0.63
2023-01-22T04:57:00.263Z,1.26
2023-01-22T04:59:29.328Z,1.81
2023-01-22T05:02:03.449Z,1.83
2023-01-22T05:04:30.998Z,1.54
2023-01-22T05:07:00.593Z,1.87
2023-01-22T05:09:30.968Z,1.78
2023-01-22T05:12:02.055Z,1.11
2023-01-22T05:14:28.848Z,1.84
2023-01-22T05:16:55.623Z,0.83
2023-01-22T05:19:22.385Z,1.87
2023-01-22T05:21:49.191Z,0.51
2023-01-22T05:24:15.956Z,1.82
2023-01-22T05:26:42.965Z,1.83
2023-01-22T05:29:11.619Z,1.29
2023-01-22T05:31:38.522Z,1.63
2023-01-22T05:34:05.405Z,1.73
2023-01-22T05:36:32.372Z,1.33
2023-01-22T05:38:59.141Z,1.61
2023-01-22T05:41:26.077Z,1.83
2023-01-22T05:43:52.928Z,0.96
2023-01-22T05:46:21.208Z,0.92
2023-01-22T05:48:48.050Z,1.59
2023-01-22T05:51:14.952Z,1.11
2023-01-22T05:53:41.715Z,1.68
2023-01-22T05:56:10.246Z,1.38
2023-01-22T05:58:37.135Z,1.43
2023-01-22T06:01:04.638Z,1.53
2023-01-22T06:03:32.986Z,1.71
2023-01-22T06:06:00.354Z,1.84
2023-01-22T06:08:27.876Z,1.84
2023-01-22T06:10:59.769Z,1.94
2023-01-22T06:13:26.689Z,0.96
2023-01-22T06:15:53.745Z,1.86
2023-01-22T06:18:22.101Z,1.89
2023-01-22T06:20:50.639Z,0.96
2023-01-22T06:23:17.878Z,1.05
2023-01-22T06:25:51.566Z,1.63
2023-01-22T06:28:18.550Z,1.49
2023-01-22T06:30:45.745Z,0.84
2023-01-22T06:33:15.021Z,0.89
2023-01-22T06:35:43.820Z,1.27
2023-01-22T06:38:12.112Z,1.59
2023-01-22T06:40:39.255Z,2.00
2023-01-22T06:43:06.664Z,1.97
2023-01-22T06:45:33.720Z,1.95
2023-01-22T06:48:00.498Z,1.52
2023-01-22T06:50:30.772Z,1.97
2023-01-22T06:52:57.510Z,1.94
2023-01-22T06:55:25.866Z,1.85
2023-01-22T06:57:54.627Z,1.52
2023-01-22T07:00:24.824Z,1.92
2023-01-22T07:02:52.055Z,0.99
2023-01-22T07:05:18.897Z,0.92
2023-01-22T07:07:45.998Z,0.62
2023-01-22T07:10:13.838Z,1.65
2023-01-22T07:12:43.630Z,1.39
2023-01-22T07:15:13.483Z,0.59
2023-01-22T07:17:40.484Z,1.33
2023-01-22T07:20:08.263Z,1.28
2023-01-22T07:22:35.042Z,1.76
2023-01-22T07:25:02.380Z,1.45
2023-01-22T07:27:29.814Z,1.84
2023-01-22T07:29:59.522Z,1.74
2023-01-22T07:32:26.408Z,1.79
2023-01-22T07:34:53.333Z,0.56
2023-01-22T07:37:20.061Z,0.89
2023-01-22T07:39:47.049Z,0.93
2023-01-22T07:42:14.186Z,1.32
2023-01-22T07:44:40.926Z,1.03
2023-01-22T07:47:12.276Z,0.86
2023-01-22T07:49:39.343Z,0.65
2023-01-22T07:52:16.862Z,1.92
2023-01-22T07:54:43.790Z,1.83
2023-01-22T07:57:10.689Z,0.77
2023-01-22T07:59:37.526Z,1.21
2023-01-22T08:02:04.390Z,1.98
2023-01-22T08:04:32.843Z,0.98
2023-01-22T08:06:59.703Z,1.09
2023-01-22T08:09:26.370Z,1.79
2023-01-22T08:11:53.652Z,1.83
2023-01-22T08:14:20.512Z,1.09
2023-01-22T08:16:47.725Z,1.73
2023-01-22T08:19:14.860Z,1.23
2023-01-22T08:21:43.286Z,1.29
2023-01-22T08:24:10.337Z,0.91
2023-01-22T08:26:37.336Z,1.15
2023-01-22T08:29:07.789Z,1.52
2023-01-22T08:31:35.073Z,1.71
2023-01-22T08:34:02.155Z,1.97
2023-01-22T08:36:29.062Z,1.21
2023-01-22T08:38:57.268Z,0.93
2023-01-22T08:41:24.777Z,1.57
2023-01-22T08:43:52.228Z,1.74
2023-01-22T08:46:20.051Z,1.68
2023-01-22T08:48:47.240Z,1.73
2023-01-22T08:51:14.352Z,1.89
2023-01-22T08:53:41.421Z,1.92
2023-01-22T08:56:10.094Z,1.95
2023-01-22T08:58:37.258Z,1.92
2023-01-22T09:01:04.558Z,1.35
2023-01-22T09:03:31.685Z,1.80
2023-01-22T09:05:58.964Z,1.97
2023-01-22T09:08:26.177Z,1.70
2023-01-22T09:10:52.946Z,1.06
2023-01-22T09:13:21.196Z,1.90
2023-01-22T09:15:48.071Z,2.03
2023-01-22T09:18:14.907Z,1.31
2023-01-22T09:20:41.791Z,1.29
2023-01-22T09:23:09.032Z,1.42
2023-01-22T09:25:36.168Z,1.63
2023-01-22T09:28:11.860Z,1.39
2023-01-22T09:30:40.083Z,2.12
2023-01-22T09:33:07.389Z,1.99
2023-01-22T09:35:34.318Z,2.19
2023-01-22T09:38:01.355Z,2.15
2023-01-22T09:40:31.385Z,1.84
2023-01-22T09:43:04.255Z,1.45
2023-01-22T09:45:34.071Z,2.10
2023-01-22T09:48:11.639Z,1.26
2023-01-22T09:50:39.090Z,1.70
2023-01-22T09:53:11.677Z,1.40
2023-01-22T09:55:44.766Z,1.51
2023-01-22T09:58:18.418Z,0.97
2023-01-22T10:00:50.863Z,1.44
2023-01-22T10:03:24.826Z,2.08
2023-01-22T10:05:56.969Z,2.12
2023-01-22T10:08:26.355Z,1.73
2023-01-22T10:10:53.828Z,2.30
2023-01-22T10:13:22.300Z,2.16
2023-01-22T10:15:51.602Z,1.74
2023-01-22T10:18:29.632Z,2.32
2023-01-22T10:21:00.697Z,2.10
2023-01-22T10:23:28.057Z,1.78
2023-01-22T10:25:59.949Z,2.36
2023-01-22T10:28:28.752Z,1.81
2023-01-22T10:30:55.884Z,2.05
2023-01-22T10:33:23.536Z,1.23
2023-01-22T10:35:53.824Z,2.42
2023-01-22T10:38:22.950Z,2.10
2023-01-22T10:40:54.567Z,2.51
2023-01-22T10:43:31.702Z,2.06
2023-01-22T10:46:04.799Z,2.42
2023-01-22T10:48:33.312Z,2.35
2023-01-22T10:51:11.496Z,2.57
2023-01-22T10:53:44.344Z,2.45
2023-01-22T10:56:13.134Z,2.60
2023-01-22T10:58:47.473Z,2.55
2023-01-22T11:01:31.473Z,2.57
2023-01-22T11:03:58.167Z,2.69
2023-01-22T11:06:39.590Z,2.76
2023-01-22T11:09:08.307Z,2.73
2023-01-22T11:11:39.094Z,2.79
2023-01-22T11:14:13.525Z,1.95
2023-01-22T11:16:45.567Z,2.88
2023-01-22T11:19:14.231Z,2.12
2023-01-22T11:21:46.412Z,2.73
2023-01-22T11:24:17.153Z,2.97
2023-01-22T11:27:03.090Z,3.02
2023-01-22T11:30:01.974Z,3.09
2023-01-22T11:33:14.467Z,2.37
2023-01-22T11:35:47.885Z,2.68
2023-01-22T11:38:43.068Z,3.14
2023-01-22T11:41:35.040Z,3.24
2023-01-22T11:44:37.712Z,3.22
2023-01-22T11:47:34.510Z,2.03
2023-01-22T11:50:24.531Z,3.04
2023-01-22T11:53:02.030Z,3.37
2023-01-22T11:55:48.297Z,3.39
2023-01-22T11:58:25.773Z,3.33
2023-01-22T12:01:07.880Z,2.72
2023-01-22T12:04:00.277Z,2.91
2023-01-22T12:06:45.907Z,2.52
2023-01-22T12:09:22.091Z,2.91
2023-01-22T12:12:27.111Z,2.77
2023-01-22T12:15:06.586Z,2.94
2023-01-22T12:17:47.118Z,3.18
2023-01-22T12:20:35.642Z,2.80
2023-01-22T12:23:08.660Z,2.90
2023-01-22T12:25:41.948Z,2.96
2023-01-22T12:28:16.567Z,2.53
2023-01-22T12:30:50.930Z,3.34
2023-01-22T12:33:22.615Z,3.31
2023-01-22T12:35:51.804Z,3.33
2023-01-22T12:38:31.445Z,3.28
2023-01-22T12:41:21.537Z,2.64
2023-01-22T12:43:55.408Z,3.31
2023-01-22T12:46:33.550Z,3.08
2023-01-22T12:49:06.083Z,2.24
2023-01-22T12:51:51.129Z,2.61
2023-01-22T12:54:20.682Z,2.90
2023-01-22T12:56:48.409Z,2.76
2023-01-22T12:59:42.364Z,2.59
2023-01-22T13:02:40.219Z,2.94
2023-01-22T13:05:16.906Z,3.43
2023-01-22T13:07:44.183Z,3.49
2023-01-22T13:10:25.028Z,3.52
2023-01-22T13:12:55.360Z,2.80
2023-01-22T13:15:26.734Z,2.64
2023-01-22T13:18:06.495Z,3.46
2023-01-22T13:20:36.467Z,3.08
2023-01-22T13:23:06.175Z,2.41
2023-01-22T13:25:33.947Z,2.40
2023-01-22T13:28:01.676Z,3.12
2023-01-22T13:30:31.043Z,3.53
2023-01-22T13:33:07.061Z,3.29
2023-01-22T13:35:36.240Z,2.70
2023-01-22T13:38:03.817Z,2.92
2023-01-22T13:40:42.683Z,3.57
2023-01-22T13:43:17.185Z,3.31
2023-01-22T13:45:46.203Z,3.10
2023-01-22T13:48:16.917Z,2.84
2023-01-22T13:50:47.575Z,2.49
2023-01-22T13:53:26.957Z,3.15
2023-01-22T13:55:55.827Z,2.66
2023-01-22T13:58:47.302Z,3.68
2023-01-22T14:01:28.506Z,3.58
2023-01-22T14:03:59.828Z,2.90
2023-01-22T14:06:29.014Z,3.54
2023-01-22T14:08:57.817Z,2.42
2023-01-22T14:11:24.734Z,3.21
2023-01-22T14:13:55.866Z,2.70
2023-01-22T14:16:24.176Z,3.50
2023-01-22T14:18:53.073Z,3.54
2023-01-22T14:21:20.192Z,3.10
2023-01-22T14:23:48.115Z,2.95
2023-01-22T14:26:15.542Z,3.18
2023-01-22T14:28:42.369Z,2.68
2023-01-22T14:31:12.240Z,2.90
2023-01-22T14:33:40.653Z,3.47
2023-01-22T14:36:08.632Z,3.54
2023-01-22T14:38:35.568Z,3.54
2023-01-22T14:41:04.196Z,3.57
2023-01-22T14:43:31.214Z,2.54
2023-01-22T14:46:00.459Z,2.25
2023-01-22T14:48:27.669Z,3.35
2023-01-22T14:50:56.390Z,3.57
2023-01-22T14:53:23.280Z,3.58
2023-01-22T14:55:53.476Z,3.57
2023-01-22T14:58:20.286Z,3.10
2023-01-22T15:00:47.029Z,3.45
2023-01-22T15:03:14.053Z,3.51
2023-01-22T15:05:40.938Z,2.56
2023-01-22T15:08:10.338Z,3.50
2023-01-22T15:10:37.354Z,3.50
2023-01-22T15:13:04.267Z,3.30
2023-01-22T15:15:31.013Z,3.01
2023-01-22T15:17:58.066Z,3.43
2023-01-22T15:20:25.209Z,3.29
2023-01-22T15:22:52.320Z,3.41
2023-01-22T15:25:20.943Z,2.30
2023-01-22T15:27:47.708Z,3.38
2023-01-22T15:30:15.220Z,2.98
2023-01-22T15:32:42.551Z,2.98
2023-01-22T15:35:10.375Z,2.42
2023-01-22T15:37:37.493Z,2.93
2023-01-22T15:40:05.441Z,3.39
2023-01-22T15:42:33.968Z,3.24
2023-01-22T15:45:00.825Z,3.07
2023-01-22T15:47:27.684Z,3.19
2023-01-22T15:49:54.711Z,2.91
2023-01-22T15:52:21.549Z,3.28
2023-01-22T15:54:48.417Z,3.27
2023-01-22T15:57:17.715Z,2.62
2023-01-22T15:59:45.973Z,3.28
2023-01-22T16:02:13.290Z,2.82
2023-01-22T16:04:40.212Z,3.26
2023-01-22T16:07:07.037Z,2.85
2023-01-22T16:09:35.039Z,3.31
2023-01-22T16:12:02.137Z,2.89
2023-01-22T16:14:29.466Z,2.63
2023-01-22T16:16:57.671Z,3.13
2023-01-22T16:19:24.721Z,2.54
2023-01-22T16:21:53.475Z,2.88
2023-01-22T16:24:20.274Z,2.27
2023-01-22T16:26:47.166Z,2.76
2023-01-22T16:29:17.185Z,3.26
2023-01-22T16:31:44.206Z,2.38
2023-01-22T16:34:14.733Z,2.34
2023-01-22T16:36:42.821Z,3.29
2023-01-22T16:39:16.204Z,3.17
2023-01-22T16:41:43.030Z,2.76
2023-01-22T16:44:12.196Z,3.36
2023-01-22T16:46:41.204Z,2.91
2023-01-22T16:49:12.132Z,3.35
2023-01-22T16:51:42.413Z,2.53
2023-01-22T16:54:17.859Z,3.29
2023-01-22T16:56:44.859Z,2.77
2023-01-22T16:59:15.547Z,2.94
2023-01-22T17:01:44.138Z,3.37
2023-01-22T17:04:11.285Z,3.37
2023-01-22T17:06:42.840Z,2.57
2023-01-22T17:09:14.321Z,2.82
2023-01-22T17:11:41.396Z,3.44
2023-01-22T17:14:08.188Z,3.41
2023-01-22T17:16:35.637Z,3.41
2023-01-22T17:19:02.489Z,2.37
2023-01-22T17:21:30.470Z,3.28
2023-01-22T17:23:59.018Z,3.47
2023-01-22T17:26:27.074Z,2.76
2023-01-22T17:28:55.477Z,2.99
2023-01-22T17:31:25.769Z,2.45
2023-01-22T17:33:53.175Z,3.07
2023-01-22T17:36:19.916Z,3.02
2023-01-22T17:38:47.781Z,3.50
2023-01-22T17:41:18.052Z,2.72
2023-01-22T17:43:49.038Z,2.40
2023-01-22T17:46:17.449Z,2.85
2023-01-22T17:48:45.234Z,2.75
2023-01-22T17:51:14.335Z,3.54
2023-01-22T17:53:42.753Z,3.34
2023-01-22T17:56:12.843Z,3.03
2023-01-22T17:58:42.995Z,3.47
2023-01-22T18:01:11.753Z,3.39
2023-01-22T18:03:41.039Z,3.33
2023-01-22T18:06:08.352Z,2.76
2023-01-22T18:08:36.791Z,3.43
2023-01-22T18:11:06.348Z,2.46
2023-01-22T18:13:33.938Z,3.38
2023-01-22T18:16:02.893Z,3.03
2023-01-22T18:18:29.895Z,3.41
2023-01-22T18:20:59.133Z,3.28
2023-01-22T18:23:26.514Z,2.68
2023-01-22T18:25:53.713Z,2.79
2023-01-22T18:28:20.599Z,2.81
2023-01-22T18:30:51.349Z,3.38
2023-01-22T18:33:20.822Z,3.20
2023-01-22T18:35:49.784Z,3.20
2023-01-22T18:38:17.331Z,2.62
2023-01-22T18:40:44.628Z,2.48
2023-01-22T18:43:11.563Z,2.99
2023-01-22T18:45:41.142Z,3.65
2023-01-22T18:48:12.731Z,3.66
2023-01-22T18:50:41.897Z,3.00
2023-01-22T18:53:09.962Z,2.52
2023-01-22T18:55:37.029Z,3.33
2023-01-22T18:58:33.512Z,3.15
2023-01-22T19:01:09.138Z,2.68
2023-01-22T19:03:36.392Z,2.95
2023-01-22T19:06:06.573Z,3.69
2023-01-22T19:08:33.519Z,3.01
2023-01-22T19:11:02.547Z,2.73
2023-01-22T19:13:29.318Z,3.60
2023-01-22T19:16:01.842Z,2.55
2023-01-22T19:18:29.577Z,3.19
2023-01-22T19:21:03.347Z,3.07
2023-01-22T19:23:34.985Z,2.88
2023-01-22T19:26:06.607Z,3.38
2023-01-22T19:28:35.670Z,2.88
2023-01-22T19:31:02.729Z,2.43
2023-01-22T19:33:33.406Z,3.18
2023-01-22T19:36:03.827Z,3.12
2023-01-22T19:38:33.821Z,3.44
2023-01-22T19:41:01.923Z,3.44
2023-01-22T19:43:28.768Z,3.31
2023-01-22T19:46:04.569Z,3.21
2023-01-22T19:48:31.504Z,3.18
2023-01-22T19:51:01.949Z,3.68
2023-01-22T19:53:36.769Z,2.96
2023-01-22T19:56:16.102Z,3.38
2023-01-22T19:58:43.032Z,2.82
2023-01-22T20:01:10.905Z,2.74
2023-01-22T20:03:38.371Z,3.28
2023-01-22T20:06:06.232Z,3.27
2023-01-22T20:08:35.328Z,3.21
2023-01-22T20:11:19.539Z,3.70
2023-01-22T20:13:52.677Z,2.65
2023-01-22T20:16:24.186Z,3.33
2023-01-22T20:18:52.472Z,2.50
2023-01-22T20:21:20.755Z,3.72
2023-01-22T20:23:52.953Z,3.44
2023-01-22T20:26:21.216Z,3.04
2023-01-22T20:28:51.222Z,3.75
2023-01-22T20:31:24.091Z,2.65
2023-01-22T20:33:54.554Z,3.22
2023-01-22T20:36:29.156Z,2.62
2023-01-22T20:39:00.669Z,2.60
2023-01-22T20:41:27.783Z,2.79
2023-01-22T20:43:57.808Z,3.55
2023-01-22T20:46:27.569Z,2.54
2023-01-22T20:48:57.463Z,2.70
2023-01-22T20:51:26.862Z,3.02
2023-01-22T20:53:55.272Z,3.44
2023-01-22T20:56:26.114Z,3.46
2023-01-22T20:58:58.196Z,2.90
2023-01-22T21:01:26.033Z,3.67
2023-01-22T21:03:54.632Z,3.08
2023-01-22T21:06:22.101Z,3.72
2023-01-22T21:08:53.395Z,2.84
2023-01-22T21:11:20.696Z,3.67
2023-01-22T21:13:51.433Z,3.23
2023-01-22T21:16:21.601Z,2.63
2023-01-22T21:18:50.604Z,2.78
2023-01-22T21:21:19.362Z,2.66
2023-01-22T21:23:50.379Z,3.06
2023-01-22T21:26:21.027Z,2.98
2023-01-22T21:28:49.589Z,2.58
2023-01-22T21:31:18.518Z,3.27
2023-01-22T21:33:51.243Z,2.46
2023-01-22T21:36:19.949Z,3.28
2023-01-22T21:38:47.175Z,3.71
2023-01-22T21:41:41.622Z,3.06
2023-01-22T21:44:15.134Z,2.65
2023-01-22T21:46:43.734Z,2.66
2023-01-22T21:49:12.885Z,3.19
2023-01-22T21:51:39.692Z,3.68
2023-01-22T21:54:06.655Z,3.34
2023-01-22T21:56:34.109Z,3.21
2023-01-22T21:59:01.100Z,3.44
2023-01-22T22:01:29.485Z,3.45
2023-01-22T22:03:59.774Z,2.88
2023-01-22T22:06:28.380Z,3.49
2023-01-22T22:08:55.280Z,2.50
2023-01-22T22:11:22.390Z,3.51
2023-01-22T22:13:49.298Z,3.13
2023-01-22T22:16:16.314Z,3.59
2023-01-22T22:18:44.555Z,3.74
2023-01-22T22:21:12.364Z,3.12
2023-01-22T22:23:40.175Z,3.78
2023-01-22T22:26:08.151Z,3.65
2023-01-22T22:28:35.683Z,3.81
2023-01-22T22:31:04.875Z,3.82
2023-01-22T22:33:31.755Z,3.65
2023-01-22T22:36:00.402Z,3.83
2023-01-22T22:38:27.484Z,3.74
2023-01-22T22:40:58.837Z,3.40
2023-01-22T22:43:25.809Z,3.75
2023-01-22T22:45:53.049Z,3.65
2023-01-22T22:48:19.845Z,3.17
2023-01-22T22:50:46.973Z,3.40
2023-01-22T22:53:15.270Z,3.34
2023-01-22T22:55:42.332Z,3.31
2023-01-22T22:58:09.630Z,3.40
2023-01-22T23:00:36.720Z,3.84
2023-01-22T23:03:03.614Z,3.70
2023-01-22T23:05:36.428Z,3.18
2023-01-22T23:08:04.039Z,3.66
2023-01-22T23:10:32.404Z,3.01
2023-01-22T23:13:01.466Z,3.37
2023-01-22T23:15:30.295Z,3.14
2023-01-22T23:17:58.520Z,2.86
2023-01-22T23:20:27.364Z,3.14
2023-01-22T23:22:55.032Z,3.84
2023-01-22T23:25:21.821Z,3.85
2023-01-22T23:27:50.309Z,2.79
2023-01-22T23:30:18.023Z,3.65
2023-01-22T23:32:45.351Z,3.86
2023-01-22T23:35:12.311Z,3.18
2023-01-22T23:37:39.467Z,3.77
2023-01-22T23:40:07.640Z,3.05
2023-01-22T23:42:34.713Z,3.43
2023-01-22T23:45:03.072Z,3.10
2023-01-22T23:47:29.852Z,3.91
2023-01-22T23:49:57.182Z,2.93
2023-01-22T23:55:14.963Z,2.83
2023-01-22T23:57:41.855Z,2.86
